sensor_id;sensor_type;location;lat;lon;timestamp;P1;durP1;ratioP1;P2;durP2;ratioP2
417;SDS011;49;48.530;9.200;2023-05-02T00:00:26;10.30;;;7.73;;
417;SDS011;49;48.530;9.200;2023-05-02T00:02:53;10.67;;;7.70;;
417;SDS011;49;48.530;9.200;2023-05-02T00:05:21;12.90;;;8.30;;
417;SDS011;49;48.530;9.200;2023-05-02T00:07:49;10.13;;;8.10;;
417;SDS011;49;48.530;9.200;2023-05-02T00:10:18;13.03;;;9.07;;
417;SDS011;49;48.530;9.200;2023-05-02T00:12:45;10.83;;;8.57;;
417;SDS011;49;48.530;9.200;2023-05-02T00:15:13;10.43;;;8.70;;
417;SDS011;49;48.530;9.200;2023-05-02T00:17:40;15.83;;;8.83;;
417;SDS011;49;48.530;9.200;2023-05-02T00:20:08;9.80;;;8.70;;
417;SDS011;49;48.530;9.200;2023-05-02T00:22:36;16.70;;;8.50;;
417;SDS011;49;48.530;9.200;2023-05-02T00:25:03;10.10;;;9.20;;
417;SDS011;49;48.530;9.200;2023-05-02T00:27:33;10.47;;;8.60;;
417;SDS011;49;48.530;9.200;2023-05-02T00:30:00;10.40;;;8.33;;
417;SDS011;49;48.530;9.200;2023-05-02T00:32:27;10.13;;;8.40;;
417;SDS011;49;48.530;9.200;2023-05-02T00:34:54;7.83;;;6.00;;
417;SDS011;49;48.530;9.200;2023-05-02T00:37:24;7.40;;;6.90;;
417;SDS011;49;48.530;9.200;2023-05-02T00:39:52;12.90;;;8.77;;
417;SDS011;49;48.530;9.200;2023-05-02T00:42:19;8.87;;;7.70;;
417;SDS011;49;48.530;9.200;2023-05-02T00:44:48;9.07;;;8.00;;
417;SDS011;49;48.530;9.200;2023-05-02T00:47:15;10.40;;;8.90;;
417;SDS011;49;48.530;9.200;2023-05-02T00:49:42;10.70;;;7.70;;
417;SDS011;49;48.530;9.200;2023-05-02T00:52:09;10.90;;;8.17;;
417;SDS011;49;48.530;9.200;2023-05-02T00:54:36;9.40;;;8.00;;
417;SDS011;49;48.530;9.200;2023-05-02T00:57:03;15.40;;;8.30;;
417;SDS011;49;48.530;9.200;2023-05-02T00:59:31;8.03;;;7.23;;
417;SDS011;49;48.530;9.200;2023-05-02T01:02:02;10.10;;;7.27;;
417;SDS011;49;48.530;9.200;2023-05-02T01:04:38;12.90;;;6.73;;
417;SDS011;49;48.530;9.200;2023-05-02T01:07:18;9.70;;;7.03;;
417;SDS011;49;48.530;9.200;2023-05-02T01:09:56;9.27;;;7.97;;
417;SDS011;49;48.530;9.200;2023-05-02T01:12:34;11.93;;;7.67;;
417;SDS011;49;48.530;9.200;2023-05-02T01:15:07;16.93;;;7.00;;
417;SDS011;49;48.530;9.200;2023-05-02T01:17:38;9.47;;;7.30;;
417;SDS011;49;48.530;9.200;2023-05-02T01:20:07;9.30;;;6.93;;
417;SDS011;49;48.530;9.200;2023-05-02T01:22:38;10.10;;;7.27;;
417;SDS011;49;48.530;9.200;2023-05-02T01:25:07;7.50;;;6.67;;
417;SDS011;49;48.530;9.200;2023-05-02T01:27:47;8.93;;;7.70;;
417;SDS011;49;48.530;9.200;2023-05-02T01:30:21;7.77;;;7.10;;
417;SDS011;49;48.530;9.200;2023-05-02T01:32:49;9.47;;;7.77;;
417;SDS011;49;48.530;9.200;2023-05-02T01:35:19;8.87;;;7.17;;
417;SDS011;49;48.530;9.200;2023-05-02T01:37:47;12.10;;;7.10;;
417;SDS011;49;48.530;9.200;2023-05-02T01:40:18;10.40;;;7.70;;
417;SDS011;49;48.530;9.200;2023-05-02T01:42:46;16.50;;;7.07;;
417;SDS011;49;48.530;9.200;2023-05-02T01:45:15;9.10;;;7.60;;
417;SDS011;49;48.530;9.200;2023-05-02T01:47:45;10.50;;;6.90;;
417;SDS011;49;48.530;9.200;2023-05-02T01:50:14;10.40;;;8.33;;
417;SDS011;49;48.530;9.200;2023-05-02T01:52:45;9.40;;;8.00;;
417;SDS011;49;48.530;9.200;2023-05-02T01:55:14;8.97;;;6.97;;
417;SDS011;49;48.530;9.200;2023-05-02T01:57:43;9.20;;;7.40;;
417;SDS011;49;48.530;9.200;2023-05-02T02:00:12;11.17;;;8.10;;
417;SDS011;49;48.530;9.200;2023-05-02T02:02:41;8.70;;;7.17;;
417;SDS011;49;48.530;9.200;2023-05-02T02:05:11;9.70;;;7.80;;
417;SDS011;49;48.530;9.200;2023-05-02T02:07:40;9.40;;;8.27;;
417;SDS011;49;48.530;9.200;2023-05-02T02:10:08;10.20;;;7.93;;
417;SDS011;49;48.530;9.200;2023-05-02T02:12:37;12.80;;;8.27;;
417;SDS011;49;48.530;9.200;2023-05-02T02:15:08;8.27;;;7.80;;
417;SDS011;49;48.530;9.200;2023-05-02T02:17:42;9.67;;;8.47;;
417;SDS011;49;48.530;9.200;2023-05-02T02:20:14;8.90;;;7.43;;
417;SDS011;49;48.530;9.200;2023-05-02T02:22:44;14.03;;;8.00;;
417;SDS011;49;48.530;9.200;2023-05-02T02:25:13;11.27;;;7.83;;
417;SDS011;49;48.530;9.200;2023-05-02T02:27:42;9.07;;;7.70;;
417;SDS011;49;48.530;9.200;2023-05-02T02:30:09;9.20;;;8.00;;
417;SDS011;49;48.530;9.200;2023-05-02T02:32:37;10.47;;;8.20;;
417;SDS011;49;48.530;9.200;2023-05-02T02:35:04;9.73;;;8.37;;
417;SDS011;49;48.530;9.200;2023-05-02T02:37:34;9.30;;;7.90;;
417;SDS011;49;48.530;9.200;2023-05-02T02:40:07;10.53;;;8.07;;
417;SDS011;49;48.530;9.200;2023-05-02T02:42:38;10.67;;;7.30;;
417;SDS011;49;48.530;9.200;2023-05-02T02:45:15;10.13;;;7.73;;
417;SDS011;49;48.530;9.200;2023-05-02T02:47:49;8.90;;;7.90;;
417;SDS011;49;48.530;9.200;2023-05-02T02:50:26;9.37;;;7.37;;
417;SDS011;49;48.530;9.200;2023-05-02T02:53:01;8.77;;;6.80;;
417;SDS011;49;48.530;9.200;2023-05-02T02:55:35;8.17;;;6.60;;
417;SDS011;49;48.530;9.200;2023-05-02T02:58:11;15.10;;;7.33;;
417;SDS011;49;48.530;9.200;2023-05-02T03:00:45;8.40;;;6.90;;
417;SDS011;49;48.530;9.200;2023-05-02T03:03:14;10.17;;;8.37;;
417;SDS011;49;48.530;9.200;2023-05-02T03:05:42;9.57;;;7.27;;
417;SDS011;49;48.530;9.200;2023-05-02T03:08:11;10.00;;;8.03;;
417;SDS011;49;48.530;9.200;2023-05-02T03:10:39;10.67;;;8.57;;
417;SDS011;49;48.530;9.200;2023-05-02T03:13:06;9.10;;;7.47;;
417;SDS011;49;48.530;9.200;2023-05-02T03:15:44;15.67;;;8.80;;
417;SDS011;49;48.530;9.200;2023-05-02T03:18:38;20.60;;;9.40;;
417;SDS011;49;48.530;9.200;2023-05-02T03:21:06;21.83;;;10.47;;
417;SDS011;49;48.530;9.200;2023-05-02T03:23:34;19.50;;;9.07;;
417;SDS011;49;48.530;9.200;2023-05-02T03:26:02;10.37;;;7.77;;
417;SDS011;49;48.530;9.200;2023-05-02T03:28:29;26.50;;;9.90;;
417;SDS011;49;48.530;9.200;2023-05-02T03:30:56;67.23;;;10.97;;
417;SDS011;49;48.530;9.200;2023-05-02T03:33:23;18.93;;;9.20;;
417;SDS011;49;48.530;9.200;2023-05-02T03:35:52;16.73;;;8.97;;
417;SDS011;49;48.530;9.200;2023-05-02T03:38:19;9.50;;;8.27;;
417;SDS011;49;48.530;9.200;2023-05-02T03:40:47;12.90;;;9.50;;
417;SDS011;49;48.530;9.200;2023-05-02T03:43:14;10.83;;;8.83;;
417;SDS011;49;48.530;9.200;2023-05-02T03:45:41;11.00;;;8.03;;
417;SDS011;49;48.530;9.200;2023-05-02T03:48:08;12.10;;;8.97;;
417;SDS011;49;48.530;9.200;2023-05-02T03:50:36;12.50;;;9.00;;
417;SDS011;49;48.530;9.200;2023-05-02T03:53:04;12.70;;;10.10;;
417;SDS011;49;48.530;9.200;2023-05-02T03:55:32;13.37;;;9.17;;
417;SDS011;49;48.530;9.200;2023-05-02T03:58:00;12.80;;;10.23;;
417;SDS011;49;48.530;9.200;2023-05-02T04:00:27;12.80;;;10.80;;
417;SDS011;49;48.530;9.200;2023-05-02T04:02:54;11.00;;;9.60;;
417;SDS011;49;48.530;9.200;2023-05-02T04:05:21;13.87;;;10.17;;
417;SDS011;49;48.530;9.200;2023-05-02T04:07:48;10.10;;;8.77;;
417;SDS011;49;48.530;9.200;2023-05-02T04:10:15;10.03;;;8.90;;
417;SDS011;49;48.530;9.200;2023-05-02T04:12:42;11.70;;;9.77;;
417;SDS011;49;48.530;9.200;2023-05-02T04:15:11;12.43;;;10.07;;
417;SDS011;49;48.530;9.200;2023-05-02T04:17:38;10.23;;;9.53;;
417;SDS011;49;48.530;9.200;2023-05-02T04:20:07;15.00;;;9.60;;
417;SDS011;49;48.530;9.200;2023-05-02T04:22:34;15.60;;;10.47;;
417;SDS011;49;48.530;9.200;2023-05-02T04:25:04;10.20;;;9.20;;
417;SDS011;49;48.530;9.200;2023-05-02T04:27:31;14.67;;;9.87;;
417;SDS011;49;48.530;9.200;2023-05-02T04:29:58;17.17;;;8.90;;
417;SDS011;49;48.530;9.200;2023-05-02T04:32:27;13.80;;;10.67;;
417;SDS011;49;48.530;9.200;2023-05-02T04:34:54;16.30;;;10.03;;
417;SDS011;49;48.530;9.200;2023-05-02T04:37:21;11.10;;;9.37;;
417;SDS011;49;48.530;9.200;2023-05-02T04:39:48;12.57;;;9.57;;
417;SDS011;49;48.530;9.200;2023-05-02T04:42:15;12.17;;;9.83;;
417;SDS011;49;48.530;9.200;2023-05-02T04:44:47;15.70;;;9.93;;
417;SDS011;49;48.530;9.200;2023-05-02T04:47:14;15.23;;;9.40;;
417;SDS011;49;48.530;9.200;2023-05-02T04:49:43;11.80;;;10.07;;
417;SDS011;49;48.530;9.200;2023-05-02T04:52:10;11.63;;;9.97;;
417;SDS011;49;48.530;9.200;2023-05-02T04:54:37;17.80;;;9.97;;
417;SDS011;49;48.530;9.200;2023-05-02T04:57:04;14.60;;;9.60;;
417;SDS011;49;48.530;9.200;2023-05-02T04:59:32;14.13;;;9.80;;
417;SDS011;49;48.530;9.200;2023-05-02T05:02:00;13.40;;;10.03;;
417;SDS011;49;48.530;9.200;2023-05-02T05:04:27;7.80;;;6.77;;
417;SDS011;49;48.530;9.200;2023-05-02T05:06:56;11.70;;;10.10;;
417;SDS011;49;48.530;9.200;2023-05-02T05:09:23;12.57;;;10.07;;
417;SDS011;49;48.530;9.200;2023-05-02T05:11:52;12.53;;;10.00;;
417;SDS011;49;48.530;9.200;2023-05-02T05:14:19;11.53;;;10.00;;
417;SDS011;49;48.530;9.200;2023-05-02T05:16:46;12.50;;;10.00;;
417;SDS011;49;48.530;9.200;2023-05-02T05:19:13;10.43;;;9.43;;
417;SDS011;49;48.530;9.200;2023-05-02T05:21:40;10.47;;;9.00;;
417;SDS011;49;48.530;9.200;2023-05-02T05:24:09;15.73;;;10.47;;
417;SDS011;49;48.530;9.200;2023-05-02T05:26:36;12.87;;;9.60;;
417;SDS011;49;48.530;9.200;2023-05-02T05:29:03;13.50;;;9.53;;
417;SDS011;49;48.530;9.200;2023-05-02T05:31:31;12.60;;;9.23;;
417;SDS011;49;48.530;9.200;2023-05-02T05:33:58;14.40;;;9.20;;
417;SDS011;49;48.530;9.200;2023-05-02T05:36:27;12.83;;;9.30;;
417;SDS011;49;48.530;9.200;2023-05-02T05:38:54;13.00;;;9.40;;
417;SDS011;49;48.530;9.200;2023-05-02T05:41:22;12.60;;;10.43;;
417;SDS011;49;48.530;9.200;2023-05-02T05:43:50;14.57;;;10.40;;
417;SDS011;49;48.530;9.200;2023-05-02T05:46:17;10.73;;;9.50;;
417;SDS011;49;48.530;9.200;2023-05-02T05:48:44;18.87;;;9.47;;
417;SDS011;49;48.530;9.200;2023-05-02T05:51:14;11.70;;;8.90;;
417;SDS011;49;48.530;9.200;2023-05-02T05:53:41;12.97;;;9.60;;
417;SDS011;49;48.530;9.200;2023-05-02T05:56:08;13.33;;;9.60;;
417;SDS011;49;48.530;9.200;2023-05-02T05:58:38;10.80;;;8.67;;
417;SDS011;49;48.530;9.200;2023-05-02T06:01:07;12.60;;;9.40;;
417;SDS011;49;48.530;9.200;2023-05-02T06:03:35;11.70;;;10.07;;
417;SDS011;49;48.530;9.200;2023-05-02T06:06:03;15.63;;;9.80;;
417;SDS011;49;48.530;9.200;2023-05-02T06:08:30;13.93;;;9.20;;
417;SDS011;49;48.530;9.200;2023-05-02T06:10:57;11.70;;;9.53;;
417;SDS011;49;48.530;9.200;2023-05-02T06:13:25;18.00;;;9.53;;
417;SDS011;49;48.530;9.200;2023-05-02T06:15:58;49.00;;;28.10;;
417;SDS011;49;48.530;9.200;2023-05-02T06:18:26;13.97;;;11.20;;
417;SDS011;49;48.530;9.200;2023-05-02T06:20:53;22.43;;;16.10;;
417;SDS011;49;48.530;9.200;2023-05-02T06:23:24;17.23;;;9.80;;
417;SDS011;49;48.530;9.200;2023-05-02T06:25:51;13.20;;;9.93;;
417;SDS011;49;48.530;9.200;2023-05-02T06:28:19;12.40;;;8.33;;
417;SDS011;49;48.530;9.200;2023-05-02T06:30:47;14.17;;;9.80;;
417;SDS011;49;48.530;9.200;2023-05-02T06:33:25;11.03;;;8.70;;
417;SDS011;49;48.530;9.200;2023-05-02T06:35:52;17.90;;;8.40;;
417;SDS011;49;48.530;9.200;2023-05-02T06:38:21;13.53;;;8.10;;
417;SDS011;49;48.530;9.200;2023-05-02T06:40:49;14.73;;;8.97;;
417;SDS011;49;48.530;9.200;2023-05-02T06:43:17;9.43;;;8.13;;
417;SDS011;49;48.530;9.200;2023-05-02T06:45:44;11.90;;;7.70;;
417;SDS011;49;48.530;9.200;2023-05-02T06:48:13;15.07;;;8.77;;
417;SDS011;49;48.530;9.200;2023-05-02T06:50:40;13.60;;;9.00;;
417;SDS011;49;48.530;9.200;2023-05-02T06:53:08;11.40;;;8.50;;
417;SDS011;49;48.530;9.200;2023-05-02T06:55:37;12.47;;;8.60;;
417;SDS011;49;48.530;9.200;2023-05-02T06:58:06;12.27;;;8.13;;
417;SDS011;49;48.530;9.200;2023-05-02T07:00:36;10.37;;;8.90;;
417;SDS011;49;48.530;9.200;2023-05-02T07:03:04;10.90;;;8.90;;
417;SDS011;49;48.530;9.200;2023-05-02T07:05:39;11.60;;;9.10;;
417;SDS011;49;48.530;9.200;2023-05-02T07:08:07;10.80;;;8.30;;
417;SDS011;49;48.530;9.200;2023-05-02T07:10:36;13.97;;;8.87;;
417;SDS011;49;48.530;9.200;2023-05-02T07:13:04;19.80;;;8.90;;
417;SDS011;49;48.530;9.200;2023-05-02T07:15:39;9.87;;;7.73;;
417;SDS011;49;48.530;9.200;2023-05-02T07:18:10;11.13;;;8.20;;
417;SDS011;49;48.530;9.200;2023-05-02T07:20:42;8.30;;;7.07;;
417;SDS011;49;48.530;9.200;2023-05-02T07:23:11;12.77;;;8.50;;
417;SDS011;49;48.530;9.200;2023-05-02T07:25:40;11.70;;;7.37;;
417;SDS011;49;48.530;9.200;2023-05-02T07:28:07;8.93;;;6.87;;
417;SDS011;49;48.530;9.200;2023-05-02T07:30:35;9.87;;;7.17;;
417;SDS011;49;48.530;9.200;2023-05-02T07:33:03;8.73;;;7.10;;
417;SDS011;49;48.530;9.200;2023-05-02T07:35:31;8.90;;;7.20;;
417;SDS011;49;48.530;9.200;2023-05-02T07:38:02;10.83;;;7.70;;
417;SDS011;49;48.530;9.200;2023-05-02T07:40:30;10.40;;;7.30;;
417;SDS011;49;48.530;9.200;2023-05-02T07:42:59;15.27;;;7.77;;
417;SDS011;49;48.530;9.200;2023-05-02T07:45:27;16.23;;;8.10;;
417;SDS011;49;48.530;9.200;2023-05-02T07:47:55;9.27;;;7.60;;
417;SDS011;49;48.530;9.200;2023-05-02T07:50:26;12.33;;;8.10;;
417;SDS011;49;48.530;9.200;2023-05-02T07:52:59;19.30;;;8.20;;
417;SDS011;49;48.530;9.200;2023-05-02T07:55:41;11.27;;;8.67;;
417;SDS011;49;48.530;9.200;2023-05-02T07:58:10;19.47;;;8.60;;
417;SDS011;49;48.530;9.200;2023-05-02T08:00:41;9.73;;;8.33;;
417;SDS011;49;48.530;9.200;2023-05-02T08:03:10;12.80;;;8.30;;
417;SDS011;49;48.530;9.200;2023-05-02T08:05:41;17.20;;;10.03;;
417;SDS011;49;48.530;9.200;2023-05-02T08:08:12;11.67;;;8.60;;
417;SDS011;49;48.530;9.200;2023-05-02T08:10:44;15.87;;;11.63;;
417;SDS011;49;48.530;9.200;2023-05-02T08:13:12;13.17;;;8.40;;
417;SDS011;49;48.530;9.200;2023-05-02T08:15:48;18.80;;;9.40;;
417;SDS011;49;48.530;9.200;2023-05-02T08:18:16;14.07;;;9.40;;
417;SDS011;49;48.530;9.200;2023-05-02T08:20:45;16.77;;;9.37;;
417;SDS011;49;48.530;9.200;2023-05-02T08:23:14;14.17;;;10.37;;
417;SDS011;49;48.530;9.200;2023-05-02T08:25:47;16.87;;;10.53;;
417;SDS011;49;48.530;9.200;2023-05-02T08:30:51;19.23;;;11.93;;
417;SDS011;49;48.530;9.200;2023-05-02T08:35:57;20.20;;;10.83;;
417;SDS011;49;48.530;9.200;2023-05-02T08:38:25;19.00;;;10.97;;
417;SDS011;49;48.530;9.200;2023-05-02T09:02:11;15.23;;;11.00;;
417;SDS011;49;48.530;9.200;2023-05-02T09:05:04;21.73;;;12.90;;
417;SDS011;49;48.530;9.200;2023-05-02T09:07:41;15.73;;;12.97;;
417;SDS011;49;48.530;9.200;2023-05-02T09:10:14;15.07;;;12.10;;
417;SDS011;49;48.530;9.200;2023-05-02T09:12:42;25.00;;;13.07;;
417;SDS011;49;48.530;9.200;2023-05-02T09:15:24;12.70;;;11.40;;
417;SDS011;49;48.530;9.200;2023-05-02T09:24:23;19.10;;;13.20;;
417;SDS011;49;48.530;9.200;2023-05-02T09:27:05;20.77;;;12.97;;
417;SDS011;49;48.530;9.200;2023-05-02T09:29:53;27.37;;;12.70;;
417;SDS011;49;48.530;9.200;2023-05-02T09:32:59;16.10;;;12.60;;
417;SDS011;49;48.530;9.200;2023-05-02T09:35:42;17.47;;;13.40;;
417;SDS011;49;48.530;9.200;2023-05-02T09:38:24;18.70;;;14.97;;
417;SDS011;49;48.530;9.200;2023-05-02T09:40:59;18.50;;;13.60;;
417;SDS011;49;48.530;9.200;2023-05-02T09:43:40;19.00;;;15.60;;
417;SDS011;49;48.530;9.200;2023-05-02T09:46:12;34.50;;;14.97;;
417;SDS011;49;48.530;9.200;2023-05-02T09:48:56;20.57;;;15.23;;
417;SDS011;49;48.530;9.200;2023-05-02T09:51:23;20.43;;;15.07;;
417;SDS011;49;48.530;9.200;2023-05-02T09:53:52;19.60;;;15.20;;
417;SDS011;49;48.530;9.200;2023-05-02T09:56:22;24.23;;;16.83;;
417;SDS011;49;48.530;9.200;2023-05-02T09:58:59;21.73;;;14.20;;
417;SDS011;49;48.530;9.200;2023-05-02T10:01:55;22.00;;;14.90;;
417;SDS011;49;48.530;9.200;2023-05-02T10:04:25;19.37;;;14.50;;
417;SDS011;49;48.530;9.200;2023-05-02T10:06:56;23.13;;;15.70;;
417;SDS011;49;48.530;9.200;2023-05-02T10:09:26;20.97;;;14.93;;
417;SDS011;49;48.530;9.200;2023-05-02T10:11:58;21.90;;;15.37;;
417;SDS011;49;48.530;9.200;2023-05-02T10:14:29;25.03;;;16.27;;
417;SDS011;49;48.530;9.200;2023-05-02T10:17:03;21.80;;;15.00;;
417;SDS011;49;48.530;9.200;2023-05-02T10:19:37;22.57;;;14.70;;
417;SDS011;49;48.530;9.200;2023-05-02T10:22:07;23.00;;;15.77;;
417;SDS011;49;48.530;9.200;2023-05-02T10:24:35;20.30;;;15.57;;
417;SDS011;49;48.530;9.200;2023-05-02T10:27:07;24.37;;;15.47;;
417;SDS011;49;48.530;9.200;2023-05-02T10:29:35;22.60;;;16.03;;
417;SDS011;49;48.530;9.200;2023-05-02T10:32:04;19.47;;;15.23;;
417;SDS011;49;48.530;9.200;2023-05-02T10:34:33;21.40;;;14.93;;
417;SDS011;49;48.530;9.200;2023-05-02T10:37:02;19.67;;;15.27;;
417;SDS011;49;48.530;9.200;2023-05-02T10:39:43;27.30;;;15.20;;
417;SDS011;49;48.530;9.200;2023-05-02T10:42:16;21.93;;;16.37;;
417;SDS011;49;48.530;9.200;2023-05-02T10:44:46;24.33;;;15.53;;
417;SDS011;49;48.530;9.200;2023-05-02T10:47:19;24.03;;;15.83;;
417;SDS011;49;48.530;9.200;2023-05-02T10:49:50;19.97;;;14.57;;
417;SDS011;49;48.530;9.200;2023-05-02T10:52:24;22.00;;;15.40;;
417;SDS011;49;48.530;9.200;2023-05-02T11:00:44;23.47;;;13.60;;
417;SDS011;49;48.530;9.200;2023-05-02T11:03:11;22.80;;;14.80;;
417;SDS011;49;48.530;9.200;2023-05-02T11:08:32;23.17;;;14.87;;
417;SDS011;49;48.530;9.200;2023-05-02T11:13:59;21.90;;;13.80;;
417;SDS011;49;48.530;9.200;2023-05-02T11:16:30;18.00;;;14.50;;
417;SDS011;49;48.530;9.200;2023-05-02T11:22:52;17.70;;;14.27;;
417;SDS011;49;48.530;9.200;2023-05-02T11:25:28;22.57;;;13.80;;
417;SDS011;49;48.530;9.200;2023-05-02T11:27:56;19.70;;;13.30;;
417;SDS011;49;48.530;9.200;2023-05-02T11:30:37;18.93;;;13.57;;
417;SDS011;49;48.530;9.200;2023-05-02T11:33:16;19.83;;;13.47;;
417;SDS011;49;48.530;9.200;2023-05-02T11:35:47;19.10;;;14.83;;
417;SDS011;49;48.530;9.200;2023-05-02T11:38:15;20.10;;;14.67;;
417;SDS011;49;48.530;9.200;2023-05-02T11:40:56;16.00;;;13.43;;
417;SDS011;49;48.530;9.200;2023-05-02T11:43:28;17.10;;;13.20;;
417;SDS011;49;48.530;9.200;2023-05-02T11:46:05;17.43;;;12.20;;
417;SDS011;49;48.530;9.200;2023-05-02T11:48:36;21.07;;;13.30;;
417;SDS011;49;48.530;9.200;2023-05-02T11:51:08;19.07;;;12.27;;
417;SDS011;49;48.530;9.200;2023-05-02T11:53:50;16.53;;;11.90;;
417;SDS011;49;48.530;9.200;2023-05-02T11:56:22;20.70;;;13.13;;
417;SDS011;49;48.530;9.200;2023-05-02T11:58:56;18.20;;;12.97;;
417;SDS011;49;48.530;9.200;2023-05-02T12:01:25;23.60;;;13.17;;
417;SDS011;49;48.530;9.200;2023-05-02T12:04:01;18.03;;;13.77;;
417;SDS011;49;48.530;9.200;2023-05-02T12:06:29;19.07;;;14.97;;
417;SDS011;49;48.530;9.200;2023-05-02T12:09:06;18.13;;;13.73;;
417;SDS011;49;48.530;9.200;2023-05-02T12:11:34;24.07;;;14.23;;
417;SDS011;49;48.530;9.200;2023-05-02T12:14:02;22.60;;;14.23;;
417;SDS011;49;48.530;9.200;2023-05-02T12:16:29;17.73;;;13.60;;
417;SDS011;49;48.530;9.200;2023-05-02T12:18:56;23.77;;;15.40;;
417;SDS011;49;48.530;9.200;2023-05-02T12:21:33;30.03;;;15.47;;
417;SDS011;49;48.530;9.200;2023-05-02T12:24:01;21.83;;;15.73;;
417;SDS011;49;48.530;9.200;2023-05-02T12:26:28;20.77;;;13.77;;
417;SDS011;49;48.530;9.200;2023-05-02T12:28:57;19.97;;;13.90;;
417;SDS011;49;48.530;9.200;2023-05-02T12:31:26;17.57;;;13.60;;
417;SDS011;49;48.530;9.200;2023-05-02T12:33:55;18.70;;;14.73;;
417;SDS011;49;48.530;9.200;2023-05-02T12:36:24;24.33;;;13.70;;
417;SDS011;49;48.530;9.200;2023-05-02T12:38:54;23.37;;;14.20;;
417;SDS011;49;48.530;9.200;2023-05-02T12:41:33;21.03;;;13.10;;
417;SDS011;49;48.530;9.200;2023-05-02T12:44:01;19.30;;;14.37;;
417;SDS011;49;48.530;9.200;2023-05-02T12:46:28;18.23;;;13.30;;
417;SDS011;49;48.530;9.200;2023-05-02T12:49:02;27.70;;;13.47;;
417;SDS011;49;48.530;9.200;2023-05-02T12:51:31;20.50;;;13.63;;
417;SDS011;49;48.530;9.200;2023-05-02T12:54:01;16.50;;;12.07;;
417;SDS011;49;48.530;9.200;2023-05-02T12:56:28;19.10;;;12.53;;
417;SDS011;49;48.530;9.200;2023-05-02T12:58:57;22.53;;;14.00;;
417;SDS011;49;48.530;9.200;2023-05-02T13:01:28;20.63;;;12.97;;
417;SDS011;49;48.530;9.200;2023-05-02T13:03:55;20.73;;;13.37;;
417;SDS011;49;48.530;9.200;2023-05-02T13:06:34;25.53;;;11.23;;
417;SDS011;49;48.530;9.200;2023-05-02T13:09:07;17.57;;;11.17;;
417;SDS011;49;48.530;9.200;2023-05-02T13:11:34;16.90;;;11.67;;
417;SDS011;49;48.530;9.200;2023-05-02T13:14:05;18.47;;;11.93;;
417;SDS011;49;48.530;9.200;2023-05-02T13:16:37;17.63;;;11.90;;
417;SDS011;49;48.530;9.200;2023-05-02T13:19:06;16.80;;;11.70;;
417;SDS011;49;48.530;9.200;2023-05-02T13:21:36;22.40;;;11.00;;
417;SDS011;49;48.530;9.200;2023-05-02T13:24:09;15.60;;;11.43;;
417;SDS011;49;48.530;9.200;2023-05-02T13:26:37;18.67;;;12.53;;
417;SDS011;49;48.530;9.200;2023-05-02T13:29:06;18.87;;;12.43;;
417;SDS011;49;48.530;9.200;2023-05-02T13:31:36;17.93;;;12.27;;
417;SDS011;49;48.530;9.200;2023-05-02T13:34:12;17.70;;;11.60;;
417;SDS011;49;48.530;9.200;2023-05-02T13:36:45;21.50;;;13.53;;
417;SDS011;49;48.530;9.200;2023-05-02T13:39:17;21.30;;;14.33;;
417;SDS011;49;48.530;9.200;2023-05-02T13:41:59;22.33;;;14.20;;
417;SDS011;49;48.530;9.200;2023-05-02T13:44:28;22.63;;;13.63;;
417;SDS011;49;48.530;9.200;2023-05-02T13:46:57;18.80;;;14.30;;
417;SDS011;49;48.530;9.200;2023-05-02T13:49:28;16.70;;;13.37;;
417;SDS011;49;48.530;9.200;2023-05-02T13:52:00;21.23;;;12.43;;
417;SDS011;49;48.530;9.200;2023-05-02T13:54:41;18.93;;;13.57;;
417;SDS011;49;48.530;9.200;2023-05-02T13:57:12;19.00;;;13.60;;
417;SDS011;49;48.530;9.200;2023-05-02T13:59:45;20.83;;;14.50;;
417;SDS011;49;48.530;9.200;2023-05-02T14:02:12;18.30;;;13.00;;
417;SDS011;49;48.530;9.200;2023-05-02T14:04:48;17.20;;;13.80;;
417;SDS011;49;48.530;9.200;2023-05-02T14:07:15;18.47;;;14.00;;
417;SDS011;49;48.530;9.200;2023-05-02T14:09:47;19.77;;;15.57;;
417;SDS011;49;48.530;9.200;2023-05-02T14:12:16;25.60;;;17.90;;
417;SDS011;49;48.530;9.200;2023-05-02T14:14:43;24.20;;;17.90;;
417;SDS011;49;48.530;9.200;2023-05-02T14:17:13;23.53;;;16.90;;
417;SDS011;49;48.530;9.200;2023-05-02T14:19:42;27.67;;;18.73;;
417;SDS011;49;48.530;9.200;2023-05-02T14:22:11;25.30;;;18.17;;
417;SDS011;49;48.530;9.200;2023-05-02T14:24:44;26.13;;;18.40;;
417;SDS011;49;48.530;9.200;2023-05-02T14:27:13;27.47;;;18.40;;
417;SDS011;49;48.530;9.200;2023-05-02T14:29:44;28.70;;;19.40;;
417;SDS011;49;48.530;9.200;2023-05-02T14:32:13;24.13;;;17.90;;
417;SDS011;49;48.530;9.200;2023-05-02T14:34:40;26.93;;;17.90;;
417;SDS011;49;48.530;9.200;2023-05-02T14:37:07;25.40;;;16.80;;
417;SDS011;49;48.530;9.200;2023-05-02T14:39:35;21.77;;;16.30;;
417;SDS011;49;48.530;9.200;2023-05-02T14:42:08;17.80;;;13.63;;
417;SDS011;49;48.530;9.200;2023-05-02T14:44:35;26.60;;;17.60;;
417;SDS011;49;48.530;9.200;2023-05-02T14:47:02;27.70;;;16.70;;
417;SDS011;49;48.530;9.200;2023-05-02T14:49:29;27.17;;;16.67;;
417;SDS011;49;48.530;9.200;2023-05-02T14:51:56;22.00;;;16.30;;
417;SDS011;49;48.530;9.200;2023-05-02T14:54:27;29.90;;;17.80;;
417;SDS011;49;48.530;9.200;2023-05-02T14:56:54;28.83;;;16.40;;
417;SDS011;49;48.530;9.200;2023-05-02T14:59:24;26.00;;;15.90;;
417;SDS011;49;48.530;9.200;2023-05-02T15:01:54;19.33;;;15.10;;
417;SDS011;49;48.530;9.200;2023-05-02T15:04:35;18.70;;;13.40;;
417;SDS011;49;48.530;9.200;2023-05-02T15:07:02;21.10;;;11.80;;
417;SDS011;49;48.530;9.200;2023-05-02T15:09:30;17.23;;;13.57;;
417;SDS011;49;48.530;9.200;2023-05-02T15:11:59;19.03;;;13.23;;
417;SDS011;49;48.530;9.200;2023-05-02T15:14:33;15.37;;;11.90;;
417;SDS011;49;48.530;9.200;2023-05-02T15:17:01;18.83;;;13.10;;
417;SDS011;49;48.530;9.200;2023-05-02T15:19:42;19.50;;;13.27;;
417;SDS011;49;48.530;9.200;2023-05-02T15:22:09;16.27;;;11.97;;
417;SDS011;49;48.530;9.200;2023-05-02T15:24:36;15.23;;;10.87;;
417;SDS011;49;48.530;9.200;2023-05-02T15:27:03;20.33;;;12.97;;
417;SDS011;49;48.530;9.200;2023-05-02T15:29:32;15.57;;;11.73;;
417;SDS011;49;48.530;9.200;2023-05-02T15:31:59;13.03;;;10.60;;
417;SDS011;49;48.530;9.200;2023-05-02T15:34:26;16.47;;;10.17;;
417;SDS011;49;48.530;9.200;2023-05-02T15:36:53;13.00;;;8.83;;
417;SDS011;49;48.530;9.200;2023-05-02T15:39:34;11.33;;;7.97;;
417;SDS011;49;48.530;9.200;2023-05-02T15:42:03;11.40;;;7.60;;
417;SDS011;49;48.530;9.200;2023-05-02T15:44:37;15.57;;;8.93;;
417;SDS011;49;48.530;9.200;2023-05-02T15:47:06;18.40;;;12.43;;
417;SDS011;49;48.530;9.200;2023-05-02T15:49:33;16.40;;;10.53;;
417;SDS011;49;48.530;9.200;2023-05-02T15:52:02;14.83;;;9.67;;
417;SDS011;49;48.530;9.200;2023-05-02T15:54:32;16.80;;;9.53;;
417;SDS011;49;48.530;9.200;2023-05-02T15:57:03;12.90;;;8.70;;
417;SDS011;49;48.530;9.200;2023-05-02T15:59:32;12.93;;;8.40;;
417;SDS011;49;48.530;9.200;2023-05-02T16:02:05;11.77;;;9.57;;
417;SDS011;49;48.530;9.200;2023-05-02T16:04:33;15.93;;;9.07;;
417;SDS011;49;48.530;9.200;2023-05-02T16:07:01;12.63;;;9.50;;
417;SDS011;49;48.530;9.200;2023-05-02T16:09:28;26.00;;;9.87;;
417;SDS011;49;48.530;9.200;2023-05-02T16:11:55;13.10;;;9.47;;
417;SDS011;49;48.530;9.200;2023-05-02T16:14:23;15.00;;;9.87;;
417;SDS011;49;48.530;9.200;2023-05-02T16:16:53;18.10;;;8.80;;
417;SDS011;49;48.530;9.200;2023-05-02T16:19:22;14.80;;;9.50;;
417;SDS011;49;48.530;9.200;2023-05-02T16:21:53;11.07;;;7.97;;
417;SDS011;49;48.530;9.200;2023-05-02T16:24:24;10.30;;;7.73;;
417;SDS011;49;48.530;9.200;2023-05-02T16:26:52;12.07;;;7.60;;
417;SDS011;49;48.530;9.200;2023-05-02T16:29:19;9.20;;;7.70;;
417;SDS011;49;48.530;9.200;2023-05-02T16:31:46;10.73;;;7.93;;
417;SDS011;49;48.530;9.200;2023-05-02T16:34:16;14.03;;;7.70;;
417;SDS011;49;48.530;9.200;2023-05-02T16:36:44;16.13;;;8.17;;
417;SDS011;49;48.530;9.200;2023-05-02T16:39:12;11.77;;;8.47;;
417;SDS011;49;48.530;9.200;2023-05-02T16:41:40;14.13;;;8.57;;
417;SDS011;49;48.530;9.200;2023-05-02T16:44:07;14.63;;;8.50;;
417;SDS011;49;48.530;9.200;2023-05-02T16:46:34;21.27;;;9.00;;